Topi Weather



Topi's Current Weather

Temprature 25.77o few clouds

few clouds

Rain: 0 %

Min Temprature25.77o
Max Temprature25.77o
Humidity65
Wind Speed0.82 m/h
Sun Rise06:00:02
Sun Set18:01:52
Current Time: 26-Sep-2022 09:09:35
Lat/Lon: 34.0704, 72.6236




Topi's Geo Location



Topi's Weather Forecast

Time Overall Temp Min Temp Max Temp Humidity Wind Speed Rain
26-Sep-2022 (Mon)
11:00:00 few clouds 25.640 25.640 28.050 66 1.51 m/h 0 %
14:00:00 clear sky 28.170 28.170 30.030 57 1.55 m/h 0 %
17:00:00 clear sky 29.590 29.590 29.590 57 0.35 m/h 0 %
20:00:00 clear sky 25.780 25.780 25.780 65 1.74 m/h 0 %
23:00:00 clear sky 24.340 24.340 24.340 69 2.42 m/h 0 %
27-Sep-2022 (Tue)
02:00:00 clear sky 23.460 23.460 23.460 71 2.17 m/h 0 %
05:00:00 clear sky 22.890 22.890 22.890 71 2.14 m/h 0 %
08:00:00 clear sky 25.740 25.740 25.740 63 1.49 m/h 0 %
11:00:00 clear sky 29.740 29.740 29.740 51 1.22 m/h 0 %
14:00:00 clear sky 31.430 31.430 31.430 46 1.62 m/h 0 %
17:00:00 clear sky 30.970 30.970 30.970 53 0.46 m/h 0 %
20:00:00 clear sky 26.760 26.760 26.760 60 2.72 m/h 0 %
23:00:00 clear sky 25.210 25.210 25.210 64 2.78 m/h 0 %
28-Sep-2022 (Wed)
02:00:00 clear sky 24.320 24.320 24.320 67 2.12 m/h 0 %
05:00:00 clear sky 23.510 23.510 23.510 68 2.74 m/h 0 %
08:00:00 clear sky 26.230 26.230 26.230 61 1.36 m/h 0 %
11:00:00 clear sky 30.300 30.300 30.300 49 1.04 m/h 0 %
14:00:00 clear sky 32.200 32.200 32.200 43 1.13 m/h 0 %
17:00:00 clear sky 31.630 31.630 31.630 50 0.56 m/h 0 %
20:00:00 scattered clouds 27.360 27.360 27.360 56 3.14 m/h 0 %
23:00:00 light rain 25.160 25.160 25.160 63 2.66 m/h 31 %
29-Sep-2022 (Thu)
02:00:00 light rain 23.420 23.420 23.420 70 2.68 m/h 103 %
05:00:00 light rain 22.260 22.260 22.260 73 2.08 m/h 59 %
08:00:00 light rain 24.650 24.650 24.650 64 1.61 m/h 142 %
11:00:00 clear sky 29.520 29.520 29.520 47 0.52 m/h 0 %
14:00:00 clear sky 31.870 31.870 31.870 42 1.57 m/h 0 %
17:00:00 clear sky 31.130 31.130 31.130 51 0.6 m/h 0 %
20:00:00 clear sky 27.010 27.010 27.010 57 2.67 m/h 0 %
23:00:00 clear sky 25.170 25.170 25.170 61 2.99 m/h 0 %
30-Sep-2022 (Fri)
02:00:00 clear sky 24.000 24.000 24.000 62 2.75 m/h 0 %
05:00:00 clear sky 23.200 23.200 23.200 62 1.78 m/h 0 %
08:00:00 clear sky 25.790 25.790 25.790 56 2.15 m/h 0 %
11:00:00 clear sky 30.660 30.660 30.660 43 0.32 m/h 0 %
14:00:00 clear sky 32.640 32.640 32.640 39 1.52 m/h 0 %
17:00:00 clear sky 31.670 31.670 31.670 48 0.69 m/h 0 %
20:00:00 clear sky 27.390 27.390 27.390 54 2.82 m/h 0 %
23:00:00 few clouds 26.290 26.290 26.290 56 2.64 m/h 0 %
01-Oct-2022 (Sat)
02:00:00 broken clouds 25.630 25.630 25.630 57 2.8 m/h 0 %
05:00:00 broken clouds 25.040 25.040 25.040 56 1.83 m/h 0 %
08:00:00 broken clouds 26.830 26.830 26.830 54 1.87 m/h 0 %

Famous Cities (61)